sensor_id;sensor_type;location;lat;lon;timestamp;temperature;humidity
22112;DHT22;11222;50.872;4.312;2023-05-07T00:01:38;17.70;99.90
22112;DHT22;11222;50.872;4.312;2023-05-07T00:04:04;17.60;99.90
22112;DHT22;11222;50.872;4.312;2023-05-07T00:06:31;17.60;99.90
22112;DHT22;11222;50.872;4.312;2023-05-07T00:08:57;17.60;99.90
22112;DHT22;11222;50.872;4.312;2023-05-07T00:11:23;17.60;99.90
22112;DHT22;11222;50.872;4.312;2023-05-07T00:13:49;17.60;99.90
22112;DHT22;11222;50.872;4.312;2023-05-07T00:16:14;17.60;99.90
22112;DHT22;11222;50.872;4.312;2023-05-07T00:18:40;17.60;99.90
22112;DHT22;11222;50.872;4.312;2023-05-07T00:21:05;17.50;99.90
22112;DHT22;11222;50.872;4.312;2023-05-07T00:23:31;17.50;99.90
22112;DHT22;11222;50.872;4.312;2023-05-07T00:25:57;17.50;99.90
22112;DHT22;11222;50.872;4.312;2023-05-07T00:28:22;17.40;99.90
22112;DHT22;11222;50.872;4.312;2023-05-07T00:30:48;17.40;99.90
22112;DHT22;11222;50.872;4.312;2023-05-07T00:33:14;17.40;99.90
22112;DHT22;11222;50.872;4.312;2023-05-07T00:35:39;17.30;99.90
22112;DHT22;11222;50.872;4.312;2023-05-07T00:38:05;17.30;99.90
22112;DHT22;11222;50.872;4.312;2023-05-07T00:40:31;17.30;99.90
22112;DHT22;11222;50.872;4.312;2023-05-07T00:42:56;17.30;99.90
22112;DHT22;11222;50.872;4.312;2023-05-07T00:45:26;17.40;99.90
22112;DHT22;11222;50.872;4.312;2023-05-07T00:47:59;17.50;99.90
22112;DHT22;11222;50.872;4.312;2023-05-07T00:50:26;17.60;99.90
22112;DHT22;11222;50.872;4.312;2023-05-07T00:52:53;17.60;99.90
22112;DHT22;11222;50.872;4.312;2023-05-07T00:55:20;17.60;99.90
22112;DHT22;11222;50.872;4.312;2023-05-07T00:57:46;17.80;99.90
22112;DHT22;11222;50.872;4.312;2023-05-07T01:00:12;18.00;99.90
22112;DHT22;11222;50.872;4.312;2023-05-07T01:02:38;18.00;99.90
22112;DHT22;11222;50.872;4.312;2023-05-07T01:05:06;17.90;99.90
22112;DHT22;11222;50.872;4.312;2023-05-07T01:07:33;17.70;99.90
22112;DHT22;11222;50.872;4.312;2023-05-07T01:10:00;17.80;99.90
22112;DHT22;11222;50.872;4.312;2023-05-07T01:12:28;17.80;99.90
22112;DHT22;11222;50.872;4.312;2023-05-07T01:14:54;17.90;99.90
22112;DHT22;11222;50.872;4.312;2023-05-07T01:17:20;17.90;99.90
22112;DHT22;11222;50.872;4.312;2023-05-07T01:19:45;17.90;99.90
22112;DHT22;11222;50.872;4.312;2023-05-07T01:22:15;17.90;99.90
22112;DHT22;11222;50.872;4.312;2023-05-07T01:24:42;17.90;99.90
22112;DHT22;11222;50.872;4.312;2023-05-07T01:27:08;18.00;99.90
22112;DHT22;11222;50.872;4.312;2023-05-07T01:29:34;18.10;99.90
22112;DHT22;11222;50.872;4.312;2023-05-07T01:32:00;18.20;99.90
22112;DHT22;11222;50.872;4.312;2023-05-07T01:34:32;18.30;99.90
22112;DHT22;11222;50.872;4.312;2023-05-07T01:36:59;18.30;99.90
22112;DHT22;11222;50.872;4.312;2023-05-07T01:39:25;18.40;99.90
22112;DHT22;11222;50.872;4.312;2023-05-07T01:41:55;18.40;99.90
22112;DHT22;11222;50.872;4.312;2023-05-07T01:44:22;18.50;99.90
22112;DHT22;11222;50.872;4.312;2023-05-07T01:46:48;18.30;99.90
22112;DHT22;11222;50.872;4.312;2023-05-07T01:49:15;18.40;99.90
22112;DHT22;11222;50.872;4.312;2023-05-07T01:51:41;18.30;99.90
22112;DHT22;11222;50.872;4.312;2023-05-07T01:54:07;18.30;99.90
22112;DHT22;11222;50.872;4.312;2023-05-07T01:56:33;18.30;99.90
22112;DHT22;11222;50.872;4.312;2023-05-07T01:58:59;18.20;99.90
22112;DHT22;11222;50.872;4.312;2023-05-07T02:01:25;18.20;99.90
22112;DHT22;11222;50.872;4.312;2023-05-07T02:03:51;18.20;99.90
22112;DHT22;11222;50.872;4.312;2023-05-07T02:06:17;18.10;99.90
22112;DHT22;11222;50.872;4.312;2023-05-07T02:08:43;18.20;99.90
22112;DHT22;11222;50.872;4.312;2023-05-07T02:11:08;18.10;99.90
22112;DHT22;11222;50.872;4.312;2023-05-07T02:13:34;18.10;99.90
22112;DHT22;11222;50.872;4.312;2023-05-07T02:16:00;18.10;99.90
22112;DHT22;11222;50.872;4.312;2023-05-07T02:18:26;17.80;99.90
22112;DHT22;11222;50.872;4.312;2023-05-07T02:20:52;17.70;99.90
22112;DHT22;11222;50.872;4.312;2023-05-07T02:23:17;17.60;99.90
22112;DHT22;11222;50.872;4.312;2023-05-07T02:25:43;17.40;99.90
22112;DHT22;11222;50.872;4.312;2023-05-07T02:28:09;17.30;99.90
22112;DHT22;11222;50.872;4.312;2023-05-07T02:30:35;17.20;99.90
22112;DHT22;11222;50.872;4.312;2023-05-07T02:33:00;17.10;99.90
22112;DHT22;11222;50.872;4.312;2023-05-07T02:35:26;17.00;99.90
22112;DHT22;11222;50.872;4.312;2023-05-07T02:37:52;17.00;99.90
22112;DHT22;11222;50.872;4.312;2023-05-07T02:40:18;16.90;99.90
22112;DHT22;11222;50.872;4.312;2023-05-07T02:42:43;16.90;99.90
22112;DHT22;11222;50.872;4.312;2023-05-07T02:45:09;16.90;99.90
22112;DHT22;11222;50.872;4.312;2023-05-07T02:47:35;16.90;99.90
22112;DHT22;11222;50.872;4.312;2023-05-07T02:50:01;17.00;99.90
22112;DHT22;11222;50.872;4.312;2023-05-07T02:52:26;16.90;99.90
22112;DHT22;11222;50.872;4.312;2023-05-07T02:54:52;16.90;99.90
22112;DHT22;11222;50.872;4.312;2023-05-07T02:57:18;16.90;99.90
22112;DHT22;11222;50.872;4.312;2023-05-07T02:59:43;16.90;99.90
22112;DHT22;11222;50.872;4.312;2023-05-07T03:02:09;16.80;99.90
22112;DHT22;11222;50.872;4.312;2023-05-07T03:04:35;16.80;99.90
22112;DHT22;11222;50.872;4.312;2023-05-07T03:07:01;16.70;99.90
22112;DHT22;11222;50.872;4.312;2023-05-07T03:09:27;16.70;99.90
22112;DHT22;11222;50.872;4.312;2023-05-07T03:11:52;16.80;99.90
22112;DHT22;11222;50.872;4.312;2023-05-07T03:14:18;16.80;99.90
22112;DHT22;11222;50.872;4.312;2023-05-07T03:16:44;16.80;99.90
22112;DHT22;11222;50.872;4.312;2023-05-07T03:19:09;16.80;99.90
22112;DHT22;11222;50.872;4.312;2023-05-07T03:21:35;16.90;99.90
22112;DHT22;11222;50.872;4.312;2023-05-07T03:24:01;17.00;99.90
22112;DHT22;11222;50.872;4.312;2023-05-07T03:26:26;17.00;99.90
22112;DHT22;11222;50.872;4.312;2023-05-07T03:28:52;17.00;99.90
22112;DHT22;11222;50.872;4.312;2023-05-07T03:31:18;17.10;99.90
22112;DHT22;11222;50.872;4.312;2023-05-07T03:33:56;17.20;99.90
22112;DHT22;11222;50.872;4.312;2023-05-07T03:36:22;17.30;99.90
22112;DHT22;11222;50.872;4.312;2023-05-07T03:38:48;17.30;99.90
22112;DHT22;11222;50.872;4.312;2023-05-07T03:41:14;17.30;99.90
22112;DHT22;11222;50.872;4.312;2023-05-07T03:43:40;17.30;99.90
22112;DHT22;11222;50.872;4.312;2023-05-07T03:46:06;17.30;99.90
22112;DHT22;11222;50.872;4.312;2023-05-07T03:48:31;17.30;99.90
22112;DHT22;11222;50.872;4.312;2023-05-07T03:50:58;17.20;99.90
22112;DHT22;11222;50.872;4.312;2023-05-07T03:53:24;17.10;99.90
22112;DHT22;11222;50.872;4.312;2023-05-07T03:55:49;17.10;99.90
22112;DHT22;11222;50.872;4.312;2023-05-07T03:58:15;17.10;99.90
22112;DHT22;11222;50.872;4.312;2023-05-07T04:00:41;17.10;99.90
22112;DHT22;11222;50.872;4.312;2023-05-07T04:03:07;17.10;99.90
22112;DHT22;11222;50.872;4.312;2023-05-07T04:05:32;17.10;99.90
22112;DHT22;11222;50.872;4.312;2023-05-07T04:07:58;17.00;99.90
22112;DHT22;11222;50.872;4.312;2023-05-07T04:10:24;16.90;99.90
22112;DHT22;11222;50.872;4.312;2023-05-07T04:12:50;16.90;99.90
22112;DHT22;11222;50.872;4.312;2023-05-07T04:15:16;16.80;99.90
22112;DHT22;11222;50.872;4.312;2023-05-07T04:17:41;16.80;99.90
22112;DHT22;11222;50.872;4.312;2023-05-07T04:20:14;16.80;99.90
22112;DHT22;11222;50.872;4.312;2023-05-07T04:22:40;16.90;99.90
22112;DHT22;11222;50.872;4.312;2023-05-07T04:25:06;17.00;99.90
22112;DHT22;11222;50.872;4.312;2023-05-07T04:27:33;17.00;99.90
22112;DHT22;11222;50.872;4.312;2023-05-07T04:29:59;17.00;99.90
22112;DHT22;11222;50.872;4.312;2023-05-07T04:32:26;17.10;99.90
22112;DHT22;11222;50.872;4.312;2023-05-07T04:34:54;17.20;99.90
22112;DHT22;11222;50.872;4.312;2023-05-07T04:37:21;17.20;99.90
22112;DHT22;11222;50.872;4.312;2023-05-07T04:39:47;17.30;99.90
22112;DHT22;11222;50.872;4.312;2023-05-07T04:42:16;17.20;99.90
22112;DHT22;11222;50.872;4.312;2023-05-07T04:44:44;17.20;99.90
22112;DHT22;11222;50.872;4.312;2023-05-07T04:47:10;17.20;99.90
22112;DHT22;11222;50.872;4.312;2023-05-07T04:49:37;17.20;99.90
22112;DHT22;11222;50.872;4.312;2023-05-07T04:52:04;17.20;99.90
22112;DHT22;11222;50.872;4.312;2023-05-07T04:54:29;17.20;99.90
22112;DHT22;11222;50.872;4.312;2023-05-07T04:56:55;17.30;99.90
22112;DHT22;11222;50.872;4.312;2023-05-07T04:59:21;17.20;99.90
22112;DHT22;11222;50.872;4.312;2023-05-07T05:01:47;17.30;99.90
22112;DHT22;11222;50.872;4.312;2023-05-07T05:04:12;17.30;99.90
22112;DHT22;11222;50.872;4.312;2023-05-07T05:06:38;17.30;99.90
22112;DHT22;11222;50.872;4.312;2023-05-07T05:09:04;17.30;99.90
22112;DHT22;11222;50.872;4.312;2023-05-07T05:11:31;17.40;99.90
22112;DHT22;11222;50.872;4.312;2023-05-07T05:13:56;17.40;99.90
22112;DHT22;11222;50.872;4.312;2023-05-07T05:16:22;17.60;99.90
22112;DHT22;11222;50.872;4.312;2023-05-07T05:18:48;17.70;99.90
22112;DHT22;11222;50.872;4.312;2023-05-07T05:21:14;17.70;99.90
22112;DHT22;11222;50.872;4.312;2023-05-07T05:23:39;17.70;99.90
22112;DHT22;11222;50.872;4.312;2023-05-07T05:26:06;17.80;99.90
22112;DHT22;11222;50.872;4.312;2023-05-07T05:28:32;17.90;99.90
22112;DHT22;11222;50.872;4.312;2023-05-07T05:30:57;17.90;99.90
22112;DHT22;11222;50.872;4.312;2023-05-07T05:33:23;17.90;99.90
22112;DHT22;11222;50.872;4.312;2023-05-07T05:35:50;17.80;99.90
22112;DHT22;11222;50.872;4.312;2023-05-07T05:38:16;17.80;99.90
22112;DHT22;11222;50.872;4.312;2023-05-07T05:40:41;17.70;99.90
22112;DHT22;11222;50.872;4.312;2023-05-07T05:43:07;17.80;99.90
22112;DHT22;11222;50.872;4.312;2023-05-07T05:45:33;17.90;99.90
22112;DHT22;11222;50.872;4.312;2023-05-07T05:47:59;17.90;99.90
22112;DHT22;11222;50.872;4.312;2023-05-07T05:50:25;18.00;99.90
22112;DHT22;11222;50.872;4.312;2023-05-07T05:52:50;18.00;99.90
22112;DHT22;11222;50.872;4.312;2023-05-07T05:55:16;17.80;99.90
22112;DHT22;11222;50.872;4.312;2023-05-07T05:57:42;17.60;99.90
22112;DHT22;11222;50.872;4.312;2023-05-07T06:00:09;17.40;99.90
22112;DHT22;11222;50.872;4.312;2023-05-07T06:02:35;17.40;99.90
22112;DHT22;11222;50.872;4.312;2023-05-07T06:05:00;17.40;99.90
22112;DHT22;11222;50.872;4.312;2023-05-07T06:07:26;17.40;99.90
22112;DHT22;11222;50.872;4.312;2023-05-07T06:09:51;17.40;99.90
22112;DHT22;11222;50.872;4.312;2023-05-07T06:12:17;17.30;99.90
22112;DHT22;11222;50.872;4.312;2023-05-07T06:14:43;17.20;99.90
22112;DHT22;11222;50.872;4.312;2023-05-07T06:17:09;17.00;99.90
22112;DHT22;11222;50.872;4.312;2023-05-07T06:19:35;17.00;99.90
22112;DHT22;11222;50.872;4.312;2023-05-07T06:22:01;17.00;99.90
22112;DHT22;11222;50.872;4.312;2023-05-07T06:24:28;17.00;99.90
22112;DHT22;11222;50.872;4.312;2023-05-07T06:26:54;16.90;99.90
22112;DHT22;11222;50.872;4.312;2023-05-07T06:29:19;17.00;99.90
22112;DHT22;11222;50.872;4.312;2023-05-07T06:31:45;17.00;99.90
22112;DHT22;11222;50.872;4.312;2023-05-07T06:34:11;17.20;99.90
22112;DHT22;11222;50.872;4.312;2023-05-07T06:36:40;17.10;99.90
22112;DHT22;11222;50.872;4.312;2023-05-07T06:39:06;17.00;99.90
22112;DHT22;11222;50.872;4.312;2023-05-07T06:41:31;17.00;99.90
22112;DHT22;11222;50.872;4.312;2023-05-07T06:43:57;17.10;99.90
22112;DHT22;11222;50.872;4.312;2023-05-07T06:46:23;17.10;99.90
22112;DHT22;11222;50.872;4.312;2023-05-07T06:48:49;17.20;99.90
22112;DHT22;11222;50.872;4.312;2023-05-07T06:51:14;17.20;99.90
22112;DHT22;11222;50.872;4.312;2023-05-07T06:53:40;17.20;99.90
22112;DHT22;11222;50.872;4.312;2023-05-07T06:56:06;17.20;99.90
22112;DHT22;11222;50.872;4.312;2023-05-07T06:58:32;17.10;99.90
22112;DHT22;11222;50.872;4.312;2023-05-07T07:00:57;16.90;99.90
22112;DHT22;11222;50.872;4.312;2023-05-07T07:03:23;17.00;99.90
22112;DHT22;11222;50.872;4.312;2023-05-07T07:05:52;17.00;99.90
22112;DHT22;11222;50.872;4.312;2023-05-07T07:08:18;16.80;99.90
22112;DHT22;11222;50.872;4.312;2023-05-07T07:10:46;16.60;99.90
22112;DHT22;11222;50.872;4.312;2023-05-07T07:13:12;16.50;99.90
22112;DHT22;11222;50.872;4.312;2023-05-07T07:15:38;16.50;99.90
22112;DHT22;11222;50.872;4.312;2023-05-07T07:18:04;16.50;99.90
22112;DHT22;11222;50.872;4.312;2023-05-07T07:20:30;16.60;99.90
22112;DHT22;11222;50.872;4.312;2023-05-07T07:22:55;16.70;99.90
22112;DHT22;11222;50.872;4.312;2023-05-07T07:25:21;16.70;99.90
22112;DHT22;11222;50.872;4.312;2023-05-07T07:27:47;16.70;99.90
22112;DHT22;11222;50.872;4.312;2023-05-07T07:30:13;16.80;99.90
22112;DHT22;11222;50.872;4.312;2023-05-07T07:32:38;17.00;99.90
22112;DHT22;11222;50.872;4.312;2023-05-07T07:35:04;17.10;99.90
22112;DHT22;11222;50.872;4.312;2023-05-07T07:37:30;17.20;99.90
22112;DHT22;11222;50.872;4.312;2023-05-07T07:39:56;17.30;99.90
22112;DHT22;11222;50.872;4.312;2023-05-07T07:42:22;17.20;99.90
22112;DHT22;11222;50.872;4.312;2023-05-07T07:44:48;17.30;99.90
22112;DHT22;11222;50.872;4.312;2023-05-07T07:47:13;17.40;99.90
22112;DHT22;11222;50.872;4.312;2023-05-07T07:49:39;17.50;99.90
22112;DHT22;11222;50.872;4.312;2023-05-07T07:52:05;17.70;99.90
22112;DHT22;11222;50.872;4.312;2023-05-07T07:54:32;17.70;99.90
22112;DHT22;11222;50.872;4.312;2023-05-07T07:56:58;17.70;99.90
22112;DHT22;11222;50.872;4.312;2023-05-07T07:59:23;17.70;99.90
22112;DHT22;11222;50.872;4.312;2023-05-07T08:01:49;17.70;99.90
22112;DHT22;11222;50.872;4.312;2023-05-07T08:04:17;17.60;99.90
22112;DHT22;11222;50.872;4.312;2023-05-07T08:06:43;17.60;99.90
22112;DHT22;11222;50.872;4.312;2023-05-07T08:09:08;17.50;99.90
22112;DHT22;11222;50.872;4.312;2023-05-07T08:11:34;17.50;99.90
22112;DHT22;11222;50.872;4.312;2023-05-07T08:14:00;17.60;99.90
22112;DHT22;11222;50.872;4.312;2023-05-07T08:16:26;17.60;99.90
22112;DHT22;11222;50.872;4.312;2023-05-07T08:18:52;17.80;99.90
22112;DHT22;11222;50.872;4.312;2023-05-07T08:21:18;17.80;99.90
22112;DHT22;11222;50.872;4.312;2023-05-07T08:23:44;17.90;99.90
22112;DHT22;11222;50.872;4.312;2023-05-07T08:26:10;18.10;99.90
22112;DHT22;11222;50.872;4.312;2023-05-07T08:28:35;18.20;99.90
22112;DHT22;11222;50.872;4.312;2023-05-07T08:31:01;18.20;99.90
22112;DHT22;11222;50.872;4.312;2023-05-07T08:33:27;18.20;99.90
22112;DHT22;11222;50.872;4.312;2023-05-07T08:35:53;18.20;99.90
22112;DHT22;11222;50.872;4.312;2023-05-07T08:38:19;18.10;99.90
22112;DHT22;11222;50.872;4.312;2023-05-07T08:40:45;17.90;99.90
22112;DHT22;11222;50.872;4.312;2023-05-07T08:43:15;17.80;99.90
22112;DHT22;11222;50.872;4.312;2023-05-07T08:45:42;17.90;99.90
22112;DHT22;11222;50.872;4.312;2023-05-07T08:48:22;17.90;99.90
22112;DHT22;11222;50.872;4.312;2023-05-07T08:50:50;17.90;99.90
22112;DHT22;11222;50.872;4.312;2023-05-07T08:53:17;18.10;99.90
22112;DHT22;11222;50.872;4.312;2023-05-07T08:55:43;18.00;99.90
22112;DHT22;11222;50.872;4.312;2023-05-07T08:58:09;18.00;99.90
22112;DHT22;11222;50.872;4.312;2023-05-07T09:00:36;17.90;99.90
22112;DHT22;11222;50.872;4.312;2023-05-07T09:03:03;17.80;99.90
22112;DHT22;11222;50.872;4.312;2023-05-07T09:05:28;17.70;99.90
22112;DHT22;11222;50.872;4.312;2023-05-07T09:07:54;17.80;99.90
22112;DHT22;11222;50.872;4.312;2023-05-07T09:10:21;17.90;99.90
22112;DHT22;11222;50.872;4.312;2023-05-07T09:12:47;17.90;99.90
22112;DHT22;11222;50.872;4.312;2023-05-07T09:15:13;17.90;99.90
22112;DHT22;11222;50.872;4.312;2023-05-07T09:17:39;18.00;99.90
22112;DHT22;11222;50.872;4.312;2023-05-07T09:20:08;18.20;99.90
22112;DHT22;11222;50.872;4.312;2023-05-07T09:22:36;18.40;99.90
22112;DHT22;11222;50.872;4.312;2023-05-07T09:25:02;18.40;99.90
22112;DHT22;11222;50.872;4.312;2023-05-07T09:27:28;18.60;99.90
22112;DHT22;11222;50.872;4.312;2023-05-07T09:29:54;18.70;99.90
22112;DHT22;11222;50.872;4.312;2023-05-07T09:32:19;18.90;99.90
22112;DHT22;11222;50.872;4.312;2023-05-07T09:34:45;19.00;99.90
22112;DHT22;11222;50.872;4.312;2023-05-07T09:37:13;19.10;99.90
22112;DHT22;11222;50.872;4.312;2023-05-07T09:39:48;19.00;99.90
22112;DHT22;11222;50.872;4.312;2023-05-07T09:42:15;19.00;99.90
22112;DHT22;11222;50.872;4.312;2023-05-07T09:44:41;19.00;99.90
22112;DHT22;11222;50.872;4.312;2023-05-07T09:47:10;19.00;99.90
22112;DHT22;11222;50.872;4.312;2023-05-07T09:49:39;19.00;99.90
22112;DHT22;11222;50.872;4.312;2023-05-07T09:52:06;18.80;99.90
22112;DHT22;11222;50.872;4.312;2023-05-07T09:54:35;18.80;99.90
22112;DHT22;11222;50.872;4.312;2023-05-07T09:57:05;18.80;99.90
22112;DHT22;11222;50.872;4.312;2023-05-07T09:59:32;18.70;99.90
22112;DHT22;11222;50.872;4.312;2023-05-07T10:01:59;18.90;99.90
22112;DHT22;11222;50.872;4.312;2023-05-07T10:04:26;18.90;99.90
22112;DHT22;11222;50.872;4.312;2023-05-07T10:06:52;19.10;99.90
22112;DHT22;11222;50.872;4.312;2023-05-07T10:09:19;19.20;99.90
22112;DHT22;11222;50.872;4.312;2023-05-07T10:11:46;19.10;99.90
22112;DHT22;11222;50.872;4.312;2023-05-07T10:14:14;19.10;99.90
22112;DHT22;11222;50.872;4.312;2023-05-07T10:16:41;19.20;99.90
22112;DHT22;11222;50.872;4.312;2023-05-07T10:19:08;19.10;99.90
22112;DHT22;11222;50.872;4.312;2023-05-07T10:21:40;19.10;99.90
22112;DHT22;11222;50.872;4.312;2023-05-07T10:24:16;19.20;99.90
22112;DHT22;11222;50.872;4.312;2023-05-07T10:26:48;19.10;99.90
22112;DHT22;11222;50.872;4.312;2023-05-07T10:29:54;19.00;99.90
22112;DHT22;11222;50.872;4.312;2023-05-07T10:34:58;18.80;99.90
22112;DHT22;11222;50.872;4.312;2023-05-07T10:37:26;18.70;99.90
22112;DHT22;11222;50.872;4.312;2023-05-07T10:39:52;18.80;99.90
22112;DHT22;11222;50.872;4.312;2023-05-07T10:42:18;18.80;99.90
22112;DHT22;11222;50.872;4.312;2023-05-07T10:44:44;18.90;99.90
22112;DHT22;11222;50.872;4.312;2023-05-07T10:47:15;19.00;99.90
22112;DHT22;11222;50.872;4.312;2023-05-07T10:52:18;19.10;99.90
22112;DHT22;11222;50.872;4.312;2023-05-07T10:54:45;19.00;99.90
22112;DHT22;11222;50.872;4.312;2023-05-07T10:57:33;19.10;99.90
22112;DHT22;11222;50.872;4.312;2023-05-07T11:00:02;19.20;99.90
22112;DHT22;11222;50.872;4.312;2023-05-07T11:05:31;19.50;99.90
22112;DHT22;11222;50.872;4.312;2023-05-07T11:08:01;19.50;99.90
22112;DHT22;11222;50.872;4.312;2023-05-07T11:10:56;19.40;99.90
22112;DHT22;11222;50.872;4.312;2023-05-07T11:13:41;19.30;99.90
22112;DHT22;11222;50.872;4.312;2023-05-07T11:16:24;19.50;99.90
22112;DHT22;11222;50.872;4.312;2023-05-07T11:18:54;19.90;99.90
22112;DHT22;11222;50.872;4.312;2023-05-07T11:21:40;20.20;99.90
22112;DHT22;11222;50.872;4.312;2023-05-07T11:24:07;20.20;99.90
22112;DHT22;11222;50.872;4.312;2023-05-07T11:27:00;20.40;99.90
22112;DHT22;11222;50.872;4.312;2023-05-07T11:29:26;20.40;99.90
22112;DHT22;11222;50.872;4.312;2023-05-07T11:31:55;20.50;99.90
22112;DHT22;11222;50.872;4.312;2023-05-07T11:34:22;20.60;99.90
22112;DHT22;11222;50.872;4.312;2023-05-07T11:36:49;20.60;99.90
22112;DHT22;11222;50.872;4.312;2023-05-07T11:39:31;20.60;99.90
22112;DHT22;11222;50.872;4.312;2023-05-07T11:41:59;20.40;99.90
22112;DHT22;11222;50.872;4.312;2023-05-07T11:44:25;20.10;99.90
22112;DHT22;11222;50.872;4.312;2023-05-07T11:46:50;20.00;99.90
22112;DHT22;11222;50.872;4.312;2023-05-07T11:49:17;19.80;99.90
22112;DHT22;11222;50.872;4.312;2023-05-07T11:51:44;19.90;99.90
22112;DHT22;11222;50.872;4.312;2023-05-07T11:54:15;19.90;99.90
22112;DHT22;11222;50.872;4.312;2023-05-07T11:56:41;20.00;99.90
22112;DHT22;11222;50.872;4.312;2023-05-07T11:59:07;20.10;99.90
22112;DHT22;11222;50.872;4.312;2023-05-07T12:01:35;20.10;99.90
22112;DHT22;11222;50.872;4.312;2023-05-07T12:04:03;20.10;99.90
22112;DHT22;11222;50.872;4.312;2023-05-07T12:06:29;20.00;99.90
22112;DHT22;11222;50.872;4.312;2023-05-07T12:08:55;19.90;99.90
22112;DHT22;11222;50.872;4.312;2023-05-07T12:11:25;19.90;99.90
22112;DHT22;11222;50.872;4.312;2023-05-07T12:13:51;19.80;99.90
22112;DHT22;11222;50.872;4.312;2023-05-07T12:16:17;19.90;99.90
22112;DHT22;11222;50.872;4.312;2023-05-07T12:18:45;20.10;99.90
22112;DHT22;11222;50.872;4.312;2023-05-07T12:21:11;20.40;99.90
22112;DHT22;11222;50.872;4.312;2023-05-07T12:23:37;20.50;99.90
22112;DHT22;11222;50.872;4.312;2023-05-07T12:26:04;20.60;99.90
22112;DHT22;11222;50.872;4.312;2023-05-07T12:28:31;20.70;99.90
22112;DHT22;11222;50.872;4.312;2023-05-07T12:30:57;20.30;99.90
22112;DHT22;11222;50.872;4.312;2023-05-07T12:33:26;20.10;99.90
22112;DHT22;11222;50.872;4.312;2023-05-07T12:35:54;20.00;99.90
22112;DHT22;11222;50.872;4.312;2023-05-07T12:38:20;20.10;99.90
22112;DHT22;11222;50.872;4.312;2023-05-07T12:40:48;20.30;99.90
22112;DHT22;11222;50.872;4.312;2023-05-07T12:43:26;20.30;99.90
22112;DHT22;11222;50.872;4.312;2023-05-07T12:45:54;20.40;99.90
22112;DHT22;11222;50.872;4.312;2023-05-07T12:48:21;20.40;99.90
22112;DHT22;11222;50.872;4.312;2023-05-07T12:50:50;20.20;99.90
22112;DHT22;11222;50.872;4.312;2023-05-07T12:53:16;20.10;99.90
22112;DHT22;11222;50.872;4.312;2023-05-07T12:55:46;20.20;99.90
22112;DHT22;11222;50.872;4.312;2023-05-07T13:00:48;20.10;99.90
22112;DHT22;11222;50.872;4.312;2023-05-07T13:03:21;20.20;99.90
22112;DHT22;11222;50.872;4.312;2023-05-07T13:05:48;20.30;99.90
22112;DHT22;11222;50.872;4.312;2023-05-07T13:08:33;20.50;99.90
22112;DHT22;11222;50.872;4.312;2023-05-07T13:11:00;20.70;99.90
22112;DHT22;11222;50.872;4.312;2023-05-07T13:13:33;20.80;99.90
22112;DHT22;11222;50.872;4.312;2023-05-07T13:16:00;20.80;99.90
22112;DHT22;11222;50.872;4.312;2023-05-07T13:18:28;20.80;99.90
22112;DHT22;11222;50.872;4.312;2023-05-07T13:20:54;20.80;99.90
22112;DHT22;11222;50.872;4.312;2023-05-07T13:23:20;20.70;99.90
22112;DHT22;11222;50.872;4.312;2023-05-07T13:25:46;20.70;99.90
22112;DHT22;11222;50.872;4.312;2023-05-07T13:28:12;20.40;99.90
22112;DHT22;11222;50.872;4.312;2023-05-07T13:30:38;20.20;99.90
22112;DHT22;11222;50.872;4.312;2023-05-07T13:33:03;20.20;99.90
22112;DHT22;11222;50.872;4.312;2023-05-07T13:35:29;20.20;99.90
22112;DHT22;11222;50.872;4.312;2023-05-07T13:37:55;20.30;99.90
22112;DHT22;11222;50.872;4.312;2023-05-07T13:40:22;20.40;99.90
22112;DHT22;11222;50.872;4.312;2023-05-07T13:42:48;20.30;99.90
22112;DHT22;11222;50.872;4.312;2023-05-07T13:45:14;20.20;99.90
22112;DHT22;11222;50.872;4.312;2023-05-07T13:47:41;20.00;99.90
22112;DHT22;11222;50.872;4.312;2023-05-07T13:50:10;20.00;99.90
22112;DHT22;11222;50.872;4.312;2023-05-07T13:52:41;20.00;99.90
22112;DHT22;11222;50.872;4.312;2023-05-07T13:55:09;20.10;99.90
22112;DHT22;11222;50.872;4.312;2023-05-07T13:57:35;20.10;99.90
22112;DHT22;11222;50.872;4.312;2023-05-07T14:00:02;20.20;99.90
22112;DHT22;11222;50.872;4.312;2023-05-07T14:02:33;20.10;99.90
22112;DHT22;11222;50.872;4.312;2023-05-07T14:04:59;20.10;99.90
22112;DHT22;11222;50.872;4.312;2023-05-07T14:07:25;20.40;99.90
22112;DHT22;11222;50.872;4.312;2023-05-07T14:09:50;20.50;99.90
22112;DHT22;11222;50.872;4.312;2023-05-07T14:12:16;20.60;99.90
22112;DHT22;11222;50.872;4.312;2023-05-07T14:14:42;20.70;99.90
22112;DHT22;11222;50.872;4.312;2023-05-07T14:17:07;20.80;99.90
22112;DHT22;11222;50.872;4.312;2023-05-07T14:19:33;20.90;99.90
22112;DHT22;11222;50.872;4.312;2023-05-07T14:21:59;20.90;99.90
22112;DHT22;11222;50.872;4.312;2023-05-07T14:24:25;20.70;99.90
22112;DHT22;11222;50.872;4.312;2023-05-07T14:26:51;20.60;99.90
22112;DHT22;11222;50.872;4.312;2023-05-07T14:29:17;20.60;99.90
22112;DHT22;11222;50.872;4.312;2023-05-07T14:31:44;20.50;99.90
22112;DHT22;11222;50.872;4.312;2023-05-07T14:34:10;20.40;99.90
22112;DHT22;11222;50.872;4.312;2023-05-07T14:36:36;20.30;99.90
22112;DHT22;11222;50.872;4.312;2023-05-07T14:39:03;20.40;99.90
22112;DHT22;11222;50.872;4.312;2023-05-07T14:41:29;20.40;99.90
22112;DHT22;11222;50.872;4.312;2023-05-07T14:43:55;20.30;99.90
22112;DHT22;11222;50.872;4.312;2023-05-07T14:46:21;20.30;99.90
22112;DHT22;11222;50.872;4.312;2023-05-07T14:48:46;20.50;99.90
22112;DHT22;11222;50.872;4.312;2023-05-07T14:51:13;20.40;99.90
22112;DHT22;11222;50.872;4.312;2023-05-07T14:53:41;20.30;99.90
22112;DHT22;11222;50.872;4.312;2023-05-07T14:56:06;20.30;99.90
22112;DHT22;11222;50.872;4.312;2023-05-07T14:58:33;20.30;99.90
22112;DHT22;11222;50.872;4.312;2023-05-07T15:00:59;20.30;99.90
22112;DHT22;11222;50.872;4.312;2023-05-07T15:03:25;20.10;99.90
22112;DHT22;11222;50.872;4.312;2023-05-07T15:05:51;20.10;99.90
22112;DHT22;11222;50.872;4.312;2023-05-07T15:08:20;20.20;99.90
22112;DHT22;11222;50.872;4.312;2023-05-07T15:10:45;20.10;99.90
22112;DHT22;11222;50.872;4.312;2023-05-07T15:13:12;20.10;99.90
22112;DHT22;11222;50.872;4.312;2023-05-07T15:15:42;20.10;99.90
22112;DHT22;11222;50.872;4.312;2023-05-07T15:18:09;20.20;99.90
22112;DHT22;11222;50.872;4.312;2023-05-07T15:20:36;20.10;99.90
22112;DHT22;11222;50.872;4.312;2023-05-07T15:23:02;20.20;99.90
22112;DHT22;11222;50.872;4.312;2023-05-07T15:25:30;20.20;99.90
22112;DHT22;11222;50.872;4.312;2023-05-07T15:27:57;20.20;99.90
22112;DHT22;11222;50.872;4.312;2023-05-07T15:30:23;20.20;99.90
22112;DHT22;11222;50.872;4.312;2023-05-07T15:32:49;20.30;99.90
22112;DHT22;11222;50.872;4.312;2023-05-07T15:35:15;20.40;99.90
22112;DHT22;11222;50.872;4.312;2023-05-07T15:37:40;20.10;99.90
22112;DHT22;11222;50.872;4.312;2023-05-07T15:40:07;20.10;99.90